createdAt,value
2022-12-23T00:01:26.114Z,10.00
2022-12-23T00:03:58.607Z,10.01
2022-12-23T00:06:27.182Z,10.00
2022-12-23T00:08:58.388Z,9.99
2022-12-23T00:11:28.738Z,9.98
2022-12-23T00:14:21.081Z,9.94
2022-12-23T00:16:51.036Z,9.96
2022-12-23T00:19:19.225Z,9.94
2022-12-23T00:21:48.553Z,9.91
2022-12-23T00:24:16.895Z,9.88
2022-12-23T00:26:44.838Z,9.85
2022-12-23T00:29:12.619Z,9.82
2022-12-23T00:31:40.430Z,9.84
2022-12-23T00:34:12.039Z,9.84
2022-12-23T00:36:40.777Z,9.85
2022-12-23T00:39:31.272Z,9.85
2022-12-23T00:42:17.562Z,9.82
2022-12-23T00:44:45.426Z,9.83
2022-12-23T00:47:33.268Z,9.81
2022-12-23T00:50:01.051Z,9.77
2022-12-23T00:52:28.801Z,9.77
2022-12-23T00:54:56.466Z,9.83
2022-12-23T00:57:24.161Z,9.81
2022-12-23T00:59:51.871Z,9.78
2022-12-23T01:02:38.381Z,9.73
2022-12-23T01:05:26.080Z,9.70
2022-12-23T01:07:55.772Z,9.67
2022-12-23T01:10:23.505Z,9.65
2022-12-23T01:12:51.717Z,9.64
2022-12-23T01:15:19.423Z,9.63
2022-12-23T01:17:47.108Z,9.64
2022-12-23T01:20:14.919Z,9.61
2022-12-23T01:22:42.662Z,9.60
2022-12-23T01:25:11.391Z,9.57
2022-12-23T01:27:39.450Z,9.57
2022-12-23T01:30:08.370Z,9.53
2022-12-23T01:32:36.216Z,9.49
2022-12-23T01:35:04.347Z,9.48
2022-12-23T01:37:32.237Z,9.47
2022-12-23T01:39:59.984Z,9.47
2022-12-23T01:42:46.730Z,9.51
2022-12-23T01:45:32.751Z,9.49
2022-12-23T01:48:10.091Z,9.49
2022-12-23T01:50:49.105Z,9.48
2022-12-23T01:53:28.227Z,9.49
2022-12-23T01:56:03.627Z,9.47
2022-12-23T01:58:41.878Z,9.49
2022-12-23T02:01:29.742Z,9.48
2022-12-23T02:04:02.751Z,9.50
2022-12-23T02:07:05.156Z,9.57
2022-12-23T02:09:39.229Z,9.56
2022-12-23T02:12:43.716Z,9.53
2022-12-23T02:15:34.661Z,9.48
2022-12-23T02:18:26.800Z,9.49
2022-12-23T02:21:11.242Z,9.45
2022-12-23T02:24:28.671Z,9.43
2022-12-23T02:27:55.539Z,9.42
2022-12-23T02:30:45.902Z,9.42
2022-12-23T02:33:30.216Z,9.40
2022-12-23T02:36:25.282Z,9.37
2022-12-23T02:39:15.217Z,9.33
2022-12-23T02:42:05.852Z,9.38
2022-12-23T02:44:48.679Z,9.41
2022-12-23T02:47:22.885Z,9.46
2022-12-23T02:49:57.048Z,9.54
2022-12-23T02:52:34.327Z,9.55
2022-12-23T02:55:11.710Z,9.58
2022-12-23T02:57:46.512Z,9.64
2022-12-23T03:00:15.620Z,9.70
2022-12-23T03:02:45.232Z,9.68
2022-12-23T03:05:34.643Z,9.66
2022-12-23T03:08:07.505Z,9.65
2022-12-23T03:11:06.282Z,9.63
2022-12-23T03:13:59.675Z,9.54
2022-12-23T03:16:46.723Z,9.46
2022-12-23T03:19:41.973Z,9.47
2022-12-23T03:22:32.407Z,9.39
2022-12-23T03:25:19.132Z,9.34
2022-12-23T03:28:00.215Z,9.31
2022-12-23T03:30:32.719Z,9.28
2022-12-23T03:33:24.055Z,9.30
2022-12-23T03:36:00.462Z,9.28
2022-12-23T03:38:33.772Z,9.25
2022-12-23T03:41:11.337Z,9.24
2022-12-23T03:43:51.291Z,9.23
2022-12-23T03:46:32.637Z,9.18
2022-12-23T03:49:10.276Z,9.16
2022-12-23T03:51:52.535Z,9.13
2022-12-23T03:54:30.043Z,9.15
2022-12-23T03:57:03.053Z,9.16
2022-12-23T03:59:35.782Z,9.16
2022-12-23T04:02:09.493Z,9.14
2022-12-23T04:04:58.453Z,9.10
2022-12-23T04:07:37.023Z,9.08
2022-12-23T04:10:05.952Z,9.07
2022-12-23T04:12:33.814Z,9.04
2022-12-23T04:15:02.034Z,9.03
2022-12-23T04:17:32.751Z,9.04
2022-12-23T04:20:00.579Z,9.03
2022-12-23T04:22:28.467Z,9.04
2022-12-23T04:24:56.191Z,9.07
2022-12-23T04:27:23.876Z,9.08
2022-12-23T04:29:51.582Z,9.07
2022-12-23T04:32:19.258Z,9.05
2022-12-23T04:34:46.987Z,9.05
2022-12-23T04:37:14.709Z,9.03
2022-12-23T04:39:42.413Z,9.05
2022-12-23T04:42:10.638Z,9.04
2022-12-23T04:44:38.415Z,9.04
2022-12-23T04:47:06.241Z,9.02
2022-12-23T04:49:34.066Z,8.99
2022-12-23T04:52:02.503Z,8.97
2022-12-23T04:54:30.476Z,8.99
2022-12-23T04:56:58.337Z,8.99
2022-12-23T04:59:26.318Z,9.00
2022-12-23T05:01:54.268Z,9.00
2022-12-23T05:04:22.182Z,9.02
2022-12-23T05:06:50.101Z,9.06
2022-12-23T05:09:18.061Z,9.14
2022-12-23T05:11:45.874Z,9.18
2022-12-23T05:14:13.782Z,9.16
2022-12-23T05:16:41.675Z,9.11
2022-12-23T05:19:11.127Z,9.12
2022-12-23T05:21:38.856Z,9.21
2022-12-23T05:24:07.005Z,9.23
2022-12-23T05:26:34.714Z,9.21
2022-12-23T05:29:02.495Z,9.18
2022-12-23T05:31:30.378Z,9.15
2022-12-23T05:34:04.094Z,9.21
2022-12-23T05:36:33.890Z,9.20
2022-12-23T05:39:01.763Z,9.22
2022-12-23T05:41:29.568Z,9.33
2022-12-23T05:43:57.359Z,9.44
2022-12-23T05:46:27.018Z,9.53
2022-12-23T05:48:55.246Z,9.51
2022-12-23T05:51:22.976Z,9.50
2022-12-23T05:53:50.785Z,9.54
2022-12-23T05:56:18.636Z,9.53
2022-12-23T05:58:46.385Z,9.55
2022-12-23T06:01:15.716Z,9.52
2022-12-23T06:03:43.614Z,9.56
2022-12-23T06:06:12.501Z,9.53
2022-12-23T06:08:40.209Z,9.53
2022-12-23T06:11:08.081Z,9.51
2022-12-23T06:13:35.787Z,9.48
2022-12-23T06:16:03.896Z,9.39
2022-12-23T06:18:31.647Z,9.42
2022-12-23T06:20:59.361Z,9.46
2022-12-23T06:23:27.051Z,9.35
2022-12-23T06:26:03.446Z,9.27
2022-12-23T06:28:31.227Z,9.25
2022-12-23T06:30:59.236Z,9.26
2022-12-23T06:33:27.090Z,9.26
2022-12-23T06:35:54.847Z,9.25
2022-12-23T06:38:22.702Z,9.22
2022-12-23T06:40:50.529Z,9.15
2022-12-23T06:43:18.486Z,9.04
2022-12-23T06:45:48.634Z,9.05
2022-12-23T06:48:17.559Z,9.04
2022-12-23T06:50:45.721Z,9.04
2022-12-23T06:53:13.432Z,9.07
2022-12-23T06:55:41.209Z,9.07
2022-12-23T06:58:09.170Z,9.00
2022-12-23T07:00:36.953Z,8.92
2022-12-23T07:03:05.021Z,8.90
2022-12-23T07:05:37.608Z,8.91
2022-12-23T07:08:06.137Z,8.91
2022-12-23T07:10:34.763Z,8.88
2022-12-23T07:13:02.509Z,8.88
2022-12-23T07:15:30.295Z,8.91
2022-12-23T07:17:58.022Z,8.94
2022-12-23T07:20:25.759Z,8.95
2022-12-23T07:22:57.393Z,8.93
2022-12-23T07:25:25.519Z,8.92
2022-12-23T07:27:56.554Z,8.92
2022-12-23T07:30:24.623Z,8.94
2022-12-23T07:32:53.056Z,8.91
2022-12-23T07:35:20.793Z,8.91
2022-12-23T07:37:54.018Z,8.92
2022-12-23T07:40:23.707Z,8.87
2022-12-23T07:42:56.780Z,8.86
2022-12-23T07:45:26.435Z,8.87
2022-12-23T07:47:57.310Z,8.85
2022-12-23T07:50:26.667Z,8.88
2022-12-23T07:52:54.926Z,8.89
2022-12-23T07:55:22.870Z,8.91
2022-12-23T07:57:52.767Z,8.91
2022-12-23T08:00:21.288Z,8.87
2022-12-23T08:02:49.279Z,8.86
2022-12-23T08:05:17.347Z,8.81
2022-12-23T08:07:45.247Z,8.79
2022-12-23T08:10:13.091Z,8.79
2022-12-23T08:12:40.904Z,8.75
2022-12-23T08:15:09.311Z,8.71
2022-12-23T08:17:37.052Z,8.69
2022-12-23T08:20:05.447Z,8.68
2022-12-23T08:22:33.144Z,8.69
2022-12-23T08:25:00.918Z,8.69
2022-12-23T08:27:28.759Z,8.72
2022-12-23T08:29:56.477Z,8.73
2022-12-23T08:32:27.640Z,8.73
2022-12-23T08:34:57.993Z,8.72
2022-12-23T08:37:25.848Z,8.71
2022-12-23T08:39:53.636Z,8.66
2022-12-23T08:42:21.364Z,8.63
2022-12-23T08:44:49.077Z,8.64
2022-12-23T08:47:16.894Z,8.63
2022-12-23T08:49:44.606Z,8.64
2022-12-23T08:52:12.648Z,8.63
2022-12-23T08:54:40.488Z,8.64
2022-12-23T08:57:08.182Z,8.67
2022-12-23T08:59:35.894Z,8.70
2022-12-23T09:02:04.633Z,8.74
2022-12-23T09:04:32.515Z,8.74
2022-12-23T09:07:00.264Z,8.78
2022-12-23T09:09:28.093Z,8.78
2022-12-23T09:11:55.941Z,8.77
2022-12-23T09:14:23.709Z,8.72
2022-12-23T09:16:52.473Z,8.69
2022-12-23T09:19:20.461Z,8.64
2022-12-23T09:21:48.238Z,8.62
2022-12-23T09:24:15.973Z,8.63
2022-12-23T09:26:43.766Z,8.61
2022-12-23T09:29:11.498Z,8.61
2022-12-23T09:31:39.333Z,8.64
2022-12-23T09:34:07.138Z,8.64
2022-12-23T09:36:34.926Z,8.65
2022-12-23T09:39:03.597Z,8.67
2022-12-23T09:42:18.505Z,8.70
2022-12-23T09:45:24.516Z,8.72
2022-12-23T09:47:56.617Z,8.78
2022-12-23T09:50:33.591Z,8.81
2022-12-23T09:53:08.075Z,8.82
2022-12-23T09:55:54.984Z,8.82
2022-12-23T09:58:52.645Z,8.84
2022-12-23T10:01:44.852Z,8.86
2022-12-23T10:04:37.957Z,8.90
2022-12-23T10:07:05.706Z,8.94
2022-12-23T10:09:39.799Z,8.95
2022-12-23T10:12:43.904Z,8.94
2022-12-23T10:15:39.036Z,8.96
2022-12-23T10:18:41.100Z,8.99
2022-12-23T10:21:24.674Z,9.06
2022-12-23T10:23:55.318Z,9.10
2022-12-23T10:26:31.296Z,9.14
2022-12-23T10:29:18.743Z,9.23
2022-12-23T10:32:17.602Z,9.36
2022-12-23T10:35:10.259Z,9.37
2022-12-23T10:37:51.184Z,9.46
2022-12-23T10:40:33.044Z,9.59
2022-12-23T10:43:24.772Z,9.65
2022-12-23T10:46:31.144Z,9.83
2022-12-23T10:49:32.952Z,9.94
2022-12-23T10:52:11.886Z,10.07
2022-12-23T10:54:43.964Z,10.21
2022-12-23T10:57:13.272Z,10.25
2022-12-23T10:59:41.394Z,10.24
2022-12-23T11:02:11.989Z,10.22
2022-12-23T11:04:47.648Z,10.24
2022-12-23T11:10:28.623Z,10.31
2022-12-23T11:12:56.383Z,10.33
2022-12-23T11:15:38.734Z,10.35
2022-12-23T11:18:12.265Z,10.35
2022-12-23T11:20:48.479Z,10.34
2022-12-23T11:23:30.441Z,10.36
2022-12-23T11:26:12.809Z,10.35
2022-12-23T11:28:53.326Z,10.30
2022-12-23T11:31:35.596Z,10.27
2022-12-23T11:34:14.221Z,10.29
2022-12-23T11:36:42.523Z,10.40
2022-12-23T11:39:10.150Z,10.50
2022-12-23T11:41:44.338Z,10.57
2022-12-23T11:44:28.135Z,10.62
2022-12-23T11:46:56.393Z,10.72
2022-12-23T11:49:27.469Z,10.78
2022-12-23T11:52:13.515Z,10.79
2022-12-23T11:54:52.837Z,10.85
2022-12-23T11:57:44.027Z,10.96
2022-12-23T12:00:41.505Z,11.09
2022-12-23T12:03:20.741Z,11.22
2022-12-23T12:06:00.555Z,11.38
2022-12-23T12:08:35.530Z,11.56
2022-12-23T12:11:18.461Z,11.68
2022-12-23T12:13:51.649Z,11.72
2022-12-23T12:16:47.574Z,11.75
2022-12-23T12:19:31.720Z,11.75
2022-12-23T12:22:11.374Z,11.77
2022-12-23T12:24:47.545Z,11.78
2022-12-23T12:27:20.775Z,11.77
2022-12-23T12:29:58.452Z,11.75
2022-12-23T12:32:33.091Z,11.76
2022-12-23T12:35:07.153Z,11.80
2022-12-23T12:37:59.433Z,11.79
2022-12-23T12:40:35.148Z,11.81
2022-12-23T12:43:20.992Z,11.76
2022-12-23T12:46:03.987Z,11.70
2022-12-23T12:48:55.697Z,11.63
2022-12-23T12:52:11.818Z,11.56
2022-12-23T12:54:56.322Z,11.45
2022-12-23T12:57:25.182Z,11.36
2022-12-23T13:00:03.618Z,11.29
2022-12-23T13:03:26.223Z,11.24
2022-12-23T13:06:13.875Z,11.19
2022-12-23T13:09:20.860Z,11.20
2022-12-23T13:12:14.655Z,11.21
2022-12-23T13:15:39.832Z,11.24
2022-12-23T13:18:31.050Z,11.27
2022-12-23T13:21:27.241Z,11.38
2022-12-23T13:24:05.992Z,11.44
2022-12-23T13:26:46.387Z,11.45
2022-12-23T13:29:53.101Z,11.47
2022-12-23T13:32:38.863Z,11.48
2022-12-23T13:35:18.904Z,11.49
2022-12-23T13:37:57.103Z,11.47
2022-12-23T13:40:47.367Z,11.44
2022-12-23T13:43:20.839Z,11.40
2022-12-23T13:45:52.740Z,11.40
2022-12-23T13:48:36.287Z,11.38
2022-12-23T13:51:15.429Z,11.36
2022-12-23T13:54:03.958Z,11.33
2022-12-23T13:57:16.499Z,11.30
2022-12-23T14:00:05.981Z,11.31
2022-12-23T14:02:43.643Z,11.35
2022-12-23T14:05:45.187Z,11.38
2022-12-23T14:08:19.022Z,11.39
2022-12-23T14:11:12.448Z,11.39
2022-12-23T14:13:52.903Z,11.44
2022-12-23T14:17:00.419Z,11.49
2022-12-23T14:19:50.471Z,11.55
2022-12-23T14:22:55.617Z,11.55
2022-12-23T14:25:33.512Z,11.54
2022-12-23T14:28:29.012Z,11.52
2022-12-23T14:30:56.971Z,11.47
2022-12-23T14:33:31.351Z,11.43
2022-12-23T14:36:25.129Z,11.40
2022-12-23T14:39:33.956Z,11.36
2022-12-23T14:42:06.738Z,11.35
2022-12-23T14:44:35.957Z,11.33
2022-12-23T14:47:36.076Z,11.34
2022-12-23T14:50:33.963Z,11.33
2022-12-23T14:53:24.870Z,11.31
2022-12-23T14:56:21.946Z,11.27
2022-12-23T14:59:09.928Z,11.23
2022-12-23T15:01:51.384Z,11.20
2022-12-23T15:04:44.445Z,11.20
2022-12-23T15:07:44.079Z,11.21
2022-12-23T15:10:24.003Z,11.16
2022-12-23T15:12:59.495Z,11.14
2022-12-23T15:15:30.088Z,11.08
2022-12-23T15:18:13.163Z,11.06
2022-12-23T15:20:40.975Z,11.02
2022-12-23T15:23:15.317Z,10.90
2022-12-23T15:25:51.265Z,10.84
2022-12-23T15:28:23.659Z,10.76
2022-12-23T15:30:55.500Z,10.61
2022-12-23T15:34:01.627Z,10.49
2022-12-23T15:36:32.101Z,10.42
2022-12-23T15:39:01.631Z,10.41
2022-12-23T15:41:29.435Z,10.38
2022-12-23T15:44:01.599Z,10.39
2022-12-23T15:46:31.921Z,10.40
2022-12-23T15:48:59.785Z,10.43
2022-12-23T15:52:07.193Z,10.46
2022-12-23T15:54:39.125Z,10.48
2022-12-23T15:57:06.923Z,10.51
2022-12-23T15:59:38.837Z,10.52
2022-12-23T16:05:31.805Z,10.53
2022-12-23T16:08:28.916Z,10.50
2022-12-23T16:11:00.758Z,10.45
2022-12-23T16:13:28.510Z,10.42
2022-12-23T16:16:37.211Z,10.40
2022-12-23T16:19:06.397Z,10.36
2022-12-23T16:21:36.850Z,10.34
2022-12-23T16:24:09.599Z,10.35
2022-12-23T16:26:43.393Z,10.35
2022-12-23T16:29:12.105Z,10.36
2022-12-23T16:31:45.697Z,10.41
2022-12-23T16:34:18.184Z,10.43
2022-12-23T16:36:46.028Z,10.43
2022-12-23T16:39:22.324Z,10.45
2022-12-23T16:41:50.811Z,10.44
2022-12-23T16:44:18.653Z,10.44
2022-12-23T16:46:50.959Z,10.44
2022-12-23T16:49:27.962Z,10.45
2022-12-23T16:51:59.432Z,10.45
2022-12-23T16:54:27.207Z,10.44
2022-12-23T16:56:54.952Z,10.41
2022-12-23T16:59:24.819Z,10.38
2022-12-23T17:01:55.519Z,10.34
2022-12-23T17:04:27.282Z,10.28
2022-12-23T17:06:54.992Z,10.23
2022-12-23T17:09:22.893Z,10.19
2022-12-23T17:11:54.166Z,10.15
2022-12-23T17:14:25.369Z,10.14
2022-12-23T17:16:53.258Z,10.13
2022-12-23T17:19:27.767Z,10.11
2022-12-23T17:22:02.537Z,10.04
2022-12-23T17:24:30.359Z,9.97
2022-12-23T17:26:58.256Z,9.90
2022-12-23T17:29:26.095Z,9.83
2022-12-23T17:31:54.348Z,9.81
2022-12-23T17:34:24.655Z,9.76
2022-12-23T17:36:52.833Z,9.73
2022-12-23T17:39:22.153Z,9.70
2022-12-23T17:41:51.208Z,9.67
2022-12-23T17:44:19.583Z,9.65
2022-12-23T17:46:47.985Z,9.59
2022-12-23T17:49:15.695Z,9.55
2022-12-23T17:51:43.709Z,9.51
2022-12-23T17:54:31.784Z,9.47
2022-12-23T17:56:59.519Z,9.41
2022-12-23T17:59:27.375Z,9.39
2022-12-23T18:01:55.200Z,9.36
2022-12-23T18:04:23.143Z,9.36
2022-12-23T18:06:50.834Z,9.40
2022-12-23T18:09:20.838Z,9.42
2022-12-23T18:11:48.617Z,9.37
2022-12-23T18:14:26.718Z,9.30
2022-12-23T18:16:54.708Z,9.26
2022-12-23T18:19:22.572Z,9.26
2022-12-23T18:21:52.088Z,9.26
2022-12-23T18:24:19.938Z,9.27
2022-12-23T18:26:47.814Z,9.27
2022-12-23T18:29:15.535Z,9.29
2022-12-23T18:31:51.604Z,9.33
2022-12-23T18:34:21.211Z,9.38
2022-12-23T18:36:51.535Z,9.42
2022-12-23T18:39:20.069Z,9.49
2022-12-23T18:41:47.934Z,9.52
2022-12-23T18:44:21.013Z,9.55
2022-12-23T18:46:49.578Z,9.58
2022-12-23T18:49:17.425Z,9.60
2022-12-23T18:51:46.148Z,9.61
2022-12-23T18:54:16.054Z,9.63
2022-12-23T18:56:44.976Z,9.66
2022-12-23T18:59:21.421Z,9.67
2022-12-23T19:01:56.483Z,9.66
2022-12-23T19:04:25.785Z,9.68
2022-12-23T19:06:55.719Z,9.70
2022-12-23T19:09:25.494Z,9.72
2022-12-23T19:11:54.341Z,9.73
2022-12-23T19:14:22.824Z,9.74
2022-12-23T19:16:52.375Z,9.75
2022-12-23T19:19:21.926Z,9.75
2022-12-23T19:21:49.778Z,9.73
2022-12-23T19:24:17.991Z,9.72
2022-12-23T19:26:45.759Z,9.69
2022-12-23T19:29:13.483Z,9.66
2022-12-23T19:31:41.560Z,9.65
2022-12-23T19:34:14.612Z,9.65
2022-12-23T19:36:44.387Z,9.65
2022-12-23T19:39:16.343Z,9.66
2022-12-23T19:41:45.696Z,9.66
2022-12-23T19:44:14.565Z,9.63
2022-12-23T19:46:42.500Z,9.64
2022-12-23T19:49:15.938Z,9.59
2022-12-23T19:51:45.462Z,9.57
2022-12-23T19:54:13.176Z,9.56
2022-12-23T19:56:41.443Z,9.54
2022-12-23T19:59:09.249Z,9.49
2022-12-23T20:01:37.011Z,9.38
2022-12-23T20:04:05.021Z,9.26
2022-12-23T20:06:38.257Z,9.18
2022-12-23T20:09:09.529Z,9.08
2022-12-23T20:11:42.620Z,8.98
2022-12-23T20:14:12.426Z,8.87
2022-12-23T20:16:40.963Z,8.80
2022-12-23T20:19:09.219Z,8.74
2022-12-23T20:21:37.707Z,8.61
2022-12-23T20:24:06.959Z,8.53
2022-12-23T20:26:34.852Z,8.48
2022-12-23T20:29:02.838Z,8.45
2022-12-23T20:31:35.424Z,8.48
2022-12-23T20:34:08.867Z,8.50
2022-12-23T20:36:36.842Z,8.54
2022-12-23T20:39:05.848Z,8.56
2022-12-23T20:41:34.125Z,8.57
2022-12-23T20:44:33.203Z,8.57
2022-12-23T20:46:50.146Z,8.56
2022-12-23T20:49:17.935Z,8.55
2022-12-23T20:51:45.612Z,8.54
2022-12-23T20:54:13.411Z,8.52
2022-12-23T20:56:41.122Z,8.51
2022-12-23T20:59:08.833Z,8.50
2022-12-23T21:01:40.286Z,8.53
2022-12-23T21:04:11.840Z,8.54
2022-12-23T21:06:40.333Z,8.58
2022-12-23T21:09:11.726Z,8.59
2022-12-23T21:11:43.033Z,8.54
2022-12-23T21:14:12.597Z,8.43
2022-12-23T21:16:41.831Z,8.34
2022-12-23T21:19:19.879Z,8.28
2022-12-23T21:21:49.201Z,8.23
2022-12-23T21:24:18.526Z,8.22
2022-12-23T21:26:55.477Z,8.17
2022-12-23T21:29:25.031Z,8.11
2022-12-23T21:31:52.933Z,8.10
2022-12-23T21:34:20.842Z,8.08
2022-12-23T21:36:48.682Z,8.08
2022-12-23T21:39:16.774Z,8.08
2022-12-23T21:41:45.744Z,8.03
2022-12-23T21:44:14.730Z,8.01
2022-12-23T21:46:42.790Z,7.98
2022-12-23T21:49:10.885Z,7.97
2022-12-23T21:51:40.852Z,7.92
2022-12-23T21:54:11.608Z,7.88
2022-12-23T21:56:41.104Z,7.87
2022-12-23T21:59:14.399Z,7.87
2022-12-23T22:01:43.455Z,7.91
2022-12-23T22:04:11.742Z,7.86
2022-12-23T22:06:45.855Z,7.82
2022-12-23T22:09:17.695Z,7.76
2022-12-23T22:11:47.030Z,7.71
2022-12-23T22:14:18.876Z,7.67
2022-12-23T22:16:46.684Z,7.64
2022-12-23T22:19:15.172Z,7.66
2022-12-23T22:21:42.992Z,7.69
2022-12-23T22:24:11.579Z,7.67
2022-12-23T22:26:40.762Z,7.64
2022-12-23T22:29:09.925Z,7.62
2022-12-23T22:31:47.467Z,7.63
2022-12-23T22:34:22.352Z,7.65
2022-12-23T22:36:50.402Z,7.62
2022-12-23T22:39:21.885Z,7.61
2022-12-23T22:41:51.330Z,7.61
2022-12-23T22:44:20.236Z,7.62
2022-12-23T22:46:48.458Z,7.64
2022-12-23T22:49:16.920Z,7.67
2022-12-23T22:51:45.100Z,7.68
2022-12-23T22:54:12.880Z,7.67
2022-12-23T22:56:40.689Z,7.69
2022-12-23T22:59:20.933Z,7.71
2022-12-23T23:01:50.866Z,7.74
2022-12-23T23:04:19.185Z,7.78
2022-12-23T23:06:46.984Z,7.80
2022-12-23T23:09:19.129Z,7.87
2022-12-23T23:11:47.835Z,7.94
2022-12-23T23:14:16.773Z,7.97
2022-12-23T23:16:44.680Z,7.98
2022-12-23T23:19:13.577Z,7.98
2022-12-23T23:21:41.265Z,7.98
2022-12-23T23:24:09.055Z,7.97
2022-12-23T23:26:36.938Z,7.97
2022-12-23T23:29:04.928Z,7.98
2022-12-23T23:31:42.058Z,8.02
2022-12-23T23:34:12.634Z,8.03
2022-12-23T23:36:41.548Z,8.02
2022-12-23T23:39:12.699Z,8.02
2022-12-23T23:41:41.324Z,8.02
2022-12-23T23:44:09.925Z,8.03
2022-12-23T23:46:39.019Z,8.06
2022-12-23T23:49:06.775Z,8.07
2022-12-23T23:51:34.946Z,8.07
2022-12-23T23:54:02.756Z,8.10
2022-12-23T23:56:37.522Z,8.13
2022-12-23T23:59:08.717Z,8.15
